LFOP/URO METAR and TAF weather

Enter ICAO airport designator
Station Type Date Time Source
LFOP METAR 2019/10/14 06:30 UTC NOAA

LFOP 140630Z AUTO 12009KT 9999 FEW036 BKN042 BKN050 13/12 Q1008 BECMG 18012KT


Station Type Date Time Source
LFOP Decoded METAR 2019/10/14 06:30 UTC NOAA

Rouen, France (LFOP) 49-23N 001-11E 157M
Oct 14, 2019 - 02:30 AM EDT / 2019.10.14 0630 UTC
Wind: from the ESE (120 degrees) at 10 MPH (9 KT):0
Visibility: greater than 7 mile(s):0
Sky conditions: mostly cloudy
Temperature: 55 F (13 C)
Dew Point: 53 F (12 C)
Relative Humidity: 93%
Pressure (altimeter): 29.77 in. Hg (1008 hPa)
ob: LFOP 140630Z AUTO 12009KT 9999 FEW036 BKN042 BKN050 13/12 Q1008 BECMG 18012KT
cycle: 6

Station Type Date Time Source
LFOP TAF 2019/10/14 06:48 UTC NOAA

TAF TAF LFOP 140500Z 1406/1506 09008KT 9999 BKN030
TEMPO 1406/1407 2000 RA BR BKN010 BKN050TCU
BECMG 1408/1411 18012KT
TEMPO 1415/1421 4000 SHRA BKN013 BKN060TCU PROB40
TEMPO 1416/1419 VRB20G35KT 2000 TSRAGR BKN013 BKN060CB
TEMPO 1502/1506 BKN008

Example: see airport list